Spring Valley, CA

12:28 PM PDT on April 25, 2015 (GMT -0700)
South Side Dictionary Hill | | Change Station
CLOSE
Current Station
Personal Weather Station
Location: Spring Valley, CA
Elevation: 450 ft
Nearby Weather Stations

Elev 450 ft 32.72 °N, 116.98 °W | Updated 19 seconds ago

Mostly Cloudy
Mostly Cloudy
66.2 °F
Feels Like 66.2 °F
N
0.0
Wind Variable Wind from SW
Gusts 3.5 mph

Today
High -- | Low -- °F
--% Chance of Precip.
Yesterday
High -- | Low -- °F
Precip. -- in
6:07 AM 7:25 PM
Waxing Crescent, 48% visible
Pressure 30.03 in
Visibility 10.0 miles
Clouds Scattered Clouds 3200 ft
Scattered Clouds 4000 ft
Mostly Cloudy 9000 ft
Dew Point 49 °F
Humidity 52%
Rainfall 0.00 in
Snow Depth Not available.
UV 6 out of 12
Pollen 7.50 out of 12
Air Quality Not available.
Flu Activity Sporadic
METAR KSEE 251915Z AUTO 23011G15KT 10SM SCT032 SCT040 BKN090 18/09 A3003 RMK AO2

More Conditions Fewer Conditions

Pressure 30.03 in
Visibility 10.0 miles
Clouds Scattered Clouds 3200 ft
Scattered Clouds 4000 ft
Mostly Cloudy 9000 ft
Dew Point 49 °F
Humidity 52%
Rainfall 0.00 in
Snow Depth Not available.
UV 6 out of 12
Pollen 7.50 out of 12
Air Quality Not available.
Flu Activity Sporadic
METAR KSEE 251915Z AUTO 23011G15KT 10SM SCT032 SCT040 BKN090 18/09 A3003 RMK AO2

More Conditions Fewer Conditions

10-Day Weather Forecast

Almanac

Astronomy

Apr. 25, 2015 Rise Set
Actual Time
Civil Twilight
Nautical Twilight
Astronomical Twilight
Moon
Length of Visible Light
Length of Day
Tomorrow will be .
, % of the Moon is Illuminated

Today's Extremes

State Highs State Lows

Community

WunderPhotos

Upload Photos

1,816,781 photos uploaded!

WunderBlogs® & News

Nearby

Air Quality

  Air Quality AQ Index Pollutant
Not available.

Snow Depth

Station Depth Elevation

Earthquake Activity

City Distance Mag. Time & Date
Minimum magnitude displayed is 2.5.

Coastal Water Temperatures

Place Temperature

Stations

Nearby Weather Stations

Station Location Temp. Windchill Dew Point Humidity Wind Precip. Elev Updated Type